Metar Cercanos

 

LEPA - Palma De Mallorc, Spain
Distance from station: ONO 38km
Actualización: 22/04/2018 03:00
Despejado
Despejado
 Viento del ENE
Viento: ENE 9 km/h
Temperatura: 11°C
Rocío: 10°C
Humedad: 94%
Barómetro: 1018 hPa
Resumen: Despejado
Visibility: greater than 10 km
2018/04/22 01:00 LEPA 220100Z 06005KT CAVOK 11/10 Q1018 NOSIG
LEMH - Mahon/Menorca Is, Spain
Distance from station: ENE 105km
Actualización: 22/04/2018 03:00
Despejado
Despejado
 Viento del calm
Viento: Calma
Temperatura: 12°C
Rocío: 11°C
Humedad: 94%
Barómetro: 1019 hPa
Clouds: Despejado
Visibility: 9 km
2018/04/22 01:00 LEMH 220100Z AUTO 00000KT 9000 NCD 12/11 Q1019
 
LEIB - Ibiza/Es Codola, Spain
Distance from station: OSO 165km
Actualización: 22/04/2018 03:00
Despejado
Despejado
 Viento del NNE
Viento: NNE 6 km/h
Temperatura: 14°C
Rocío: 11°C
Humedad: 82%
Barómetro: 1018 hPa
Resumen: Despejado
Visibility: greater than 10 km
2018/04/22 01:00 LEIB 220100Z 03003KT CAVOK 14/11 Q1018 NOSIG
LEBL - Barcelona Airpor, Spain
Distance from station: NNO 225km
Actualización: 22/04/2018 03:00
Few Clouds
Few Clouds
 Viento del NO
Viento: NO 11 km/h
Temperatura: 16°C
Rocío: 10°C
Humedad: 68%
Barómetro: 1019 hPa
Clouds: Few Clouds
Visibility: 10 km
Cloud details: Few Clouds 1067 m
2018/04/22 01:00 LEBL 220100Z 31006KT 9999 FEW035 16/10 Q1019 NOSIG
 
LEVC - Valencia (civ/Mi, Spain
Distance from station: NO 188km
Actualización: 22/04/2018 03:00
Despejado
Despejado
 Viento del calm
Viento: Calma
Temperatura: 13°C
Rocío: 10°C
Humedad: 82%
Barómetro: 1019 hPa
Resumen: Despejado
Visibility: greater than 10 km
2018/04/22 01:00 LEVC 220100Z 00000KT CAVOK 13/10 Q1019 NOSIG
LEGE - Gerona/Costa Bra, Spain
Distance from station: N 276km
Actualización: 22/04/2018 03:00
Few Clouds
Few Clouds
 Viento del calm
Viento: Calma
Temperatura: 10°C
Rocío: 8°C
Humedad: 88%
Barómetro: 1018 hPa
Clouds: Few Clouds
Visibility: 10 km
Cloud details: Few Clouds 1524 m
2018/04/22 01:00 LEGE 220100Z 00000KT 9999 FEW050 10/08 Q1018
 
LEAL - Alicante/El Alte, Spain
Distance from station: OSO 344km
Actualización: 22/04/2018 03:00
Despejado
Despejado
 Viento del NE
Viento: NE 9 km/h
Temperatura: 16°C
Rocío: 13°C
Humedad: 83%
Barómetro: 1018 hPa
Resumen: Despejado
Visibility: greater than 10 km
2018/04/22 01:00 LEAL 220100Z 05005KT CAVOK 16/13 Q1018 NOSIG
LEAM - Almeria Airport, Spain
Distance from station: SSO 56km
Actualización: 22/04/2018 03:00
Despejado
Despejado
 Viento del N
Viento: N 15 km/h
Temperatura: 23°C
Rocío: 7°C
Humedad: 36%
Barómetro: 1014 hPa
Clouds: Despejado
Visibility: 10 km
2018/04/22 01:00 LEAM 220100Z AUTO 36008KT 320V050 9999 NCD 23/07 Q1014
 
LEZG - Zaragoza (mil/Ci, Spain
Distance from station: NO 431km
Actualización: 22/04/2018 03:00
Few Clouds
Few Clouds
 Viento del SE
Viento: SE 7 km/h
Temperatura: 14°C
Rocío: 10°C
Humedad: 77%
Barómetro: 1018 hPa
Clouds: Few Clouds
Visibility: 10 km
Cloud details: Few Clouds 2591 m
2018/04/22 01:00 LEZG 220100Z 13004KT 090V180 9999 FEW085 14/10 Q1018
LEMD - Madrid/Barajas, Spain
Distance from station: ONO 234km
Actualización: 22/04/2018 03:00
Despejado
Despejado
 Viento del NNE
Viento: NNE 7 km/h
Temperatura: 12°C
Rocío: 10°C
Humedad: 88%
Barómetro: 1019 hPa
Resumen: Despejado
Visibility: greater than 10 km
2018/04/22 01:00 LEMD 220100Z 03004KT 360V070 CAVOK 12/10 Q1019 NOSIG
 
LEGR - Granada Airport, Spain
Distance from station: OSO 62km
Actualización: 22/04/2018 03:00
Despejado
Despejado
 Viento del calm
Viento: Calma
Temperatura: 13°C
Rocío: 10°C
Humedad: 82%
Barómetro: 1015 hPa
Clouds: Despejado
Visibility: 10 km
2018/04/22 01:00 LEGR 220100Z AUTO 00000KT 9999 NCD 13/10 Q1015
LEMG - Malaga (civ/Mil), Spain
Distance from station: OSO 227km
Actualización: 22/04/2018 03:00
Despejado
Despejado
 Viento del O
Viento: O 9 km/h
Temperatura: 15°C
Rocío: 12°C
Humedad: 82%
Barómetro: 1013 hPa
Resumen: Despejado
Visibility: greater than 10 km
2018/04/22 01:00 LEMG 220100Z 26005KT CAVOK 15/12 Q1013 NOSIG
 
LEZL - Sevilla (civ/Mil, Spain
Distance from station: S 318km
Actualización: 22/04/2018 03:00
Lluvia débil, Parcialmente nuboso
Lluvia débil, Parcialmente nuboso
 Viento del ENE
Viento: ENE 9 km/h
Temperatura: 18°C
Rocío: 15°C
Humedad: 83%
Barómetro: 1014 hPa
Resumen: Lluvia débil
Clouds: Parcialmente nuboso
Visibility: 10 km
2018/04/22 01:00 LEZL 220100Z AUTO 07005KT 330V100 9999 -RA NSC 18/15 Q1014
LEVT - Vitoria, Spain
Distance from station: NO 226km
Actualización: 22/04/2018 03:00
Despejado
Despejado
 Viento del ENE
Viento: ENE 2 km/h
Temperatura: 11°C
Rocío: 9°C
Humedad: 88%
Barómetro: 1018 hPa
Resumen: Despejado
Visibility: greater than 10 km
2018/04/22 01:00 LEVT 220100Z 06001KT CAVOK 11/09 Q1018
 
LEBB - Bilbao/Sondica, Spain
Distance from station: NNO 235km
Actualización: 22/04/2018 03:00
Despejado
Despejado
 Viento del ESE
Viento: ESE 11 km/h
Temperatura: 19°C
Rocío: 11°C
Humedad: 60%
Barómetro: 1015 hPa
Resumen: Despejado
Visibility: greater than 10 km
2018/04/22 01:00 LEBB 220100Z AUTO 11006KT 090V150 CAVOK 19/11 Q1015
LESO - San Sebastian/Fu, Spain
Distance from station: N 231km
Actualización: 22/04/2018 03:00
Despejado
Despejado
 Viento del SO
Viento: SO 11 km/h
Temperatura: 23°C
Rocío: 9°C
Humedad: 41%
Barómetro: 1015 hPa
Resumen: Despejado
Visibility: greater than 10 km
2018/04/22 01:00 LESO 220100Z AUTO 23006KT 200V270 CAVOK 23/09 Q1015
 
LEVD - Valladolid(Mil/C, Spain
Distance from station: ONO 239km
Actualización: 21/04/2018 21:30
NOT Current
Despejado
Despejado
 Viento del NO
Viento: NO 4 km/h
Temperatura: 14°C
Rocío: 8°C
Humedad: 67%
Barómetro: 1018 hPa
Resumen: Despejado
Visibility: greater than 10 km
2018/04/21 19:30 LEVD 211930Z 32002KT CAVOK 14/08 Q1018
LESA - Salamanca (civ/M, Spain
Distance from station: ONO 349km
Actualización: 21/04/2018 20:00
NOT Current
Parcialmente nuboso
Parcialmente nuboso
 Viento del ONO
Viento: ONO 24 km/h
Temperatura: 15°C
Rocío: 10°C
Humedad: 72%
Barómetro: 1018 hPa
Clouds: Parcialmente nuboso
Visibility: 10 km
Cloud details: Few Clouds 610 m
Parcialmente nuboso 762 m
2018/04/21 18:00 LESA 211800Z 29013KT 260V320 9999 FEW020 SCT025 15/10 Q1018
 
LEXJ - Santander/Paraya, Spain
Distance from station: NNO 247km
Actualización: 22/04/2018 03:00
Parcialmente nuboso
Parcialmente nuboso
 Viento del varies
Viento: varies 4 km/h
Temperatura: 15°C
Rocío: 15°C
Humedad: 100%
Barómetro: 1015 hPa
Clouds: Parcialmente nuboso
Visibility: 6 km
2018/04/22 01:00 LEXJ 220100Z AUTO VRB02KT 6000 NSC 15/15 Q1015
LEAS - Asturias/Aviles, Spain
Distance from station: NO 214km
Actualización: 22/04/2018 03:00
Despejado
Despejado
 Viento del ONO
Viento: ONO 15 km/h
Temperatura: 16°C
Rocío: 12°C
Humedad: 77%
Barómetro: 1016 hPa
Resumen: Despejado
Visibility: greater than 10 km
2018/04/22 01:00 LEAS 220100Z AUTO 29008KT 260V320 CAVOK 16/12 Q1016
 
LECO - La Coruna/Alvedr, Spain
Distance from station: ONO 222km
Actualización: 22/04/2018 03:00
Mist, Parcialmente nuboso
Mist, Parcialmente nuboso
 Viento del S
Viento: S 9 km/h
Temperatura: 13°C
Rocío: 12°C
Humedad: 94%
Barómetro: 1017 hPa
Resumen: Mist
Clouds: Parcialmente nuboso
Visibility: 5 km
2018/04/22 01:00 LECO 220100Z AUTO 18005KT 5000 BR NSC 13/12 Q1017
LEVX - Vigo/Peinador, Spain
Distance from station: O 214km
Actualización: 22/04/2018 03:00
Despejado
Despejado
 Viento del NNE
Viento: NNE 6 km/h
Temperatura: 14°C
Rocío: 12°C
Humedad: 88%
Barómetro: 1017 hPa
Resumen: Despejado
Visibility: greater than 10 km
2018/04/22 01:00 LEVX 220100Z 02003KT 350V060 CAVOK 14/12 Q1017 NOSIG